createdAt,value
2017-08-24T00:00:28.985Z,20.36
2017-08-24T00:01:09.523Z,20.48
2017-08-24T00:01:50.074Z,20.41
2017-08-24T00:02:30.607Z,20.39
2017-08-24T00:03:11.151Z,20.41
2017-08-24T00:03:51.694Z,20.41
2017-08-24T00:04:32.234Z,20.47
2017-08-24T00:05:12.774Z,20.38
2017-08-24T00:05:53.314Z,20.38
2017-08-24T00:06:33.846Z,20.36
2017-08-24T00:07:14.387Z,20.36
2017-08-24T00:07:54.929Z,20.5
2017-08-24T00:08:35.479Z,20.38
2017-08-24T00:09:16.007Z,20.41
2017-08-24T00:09:56.557Z,20.48
2017-08-24T00:10:37.095Z,20.5
2017-08-24T00:11:17.637Z,20.43
2017-08-24T00:11:58.170Z,20.43
2017-08-24T00:12:38.712Z,20.47
2017-08-24T00:13:19.258Z,20.41
2017-08-24T00:13:59.798Z,20.41
2017-08-24T00:14:40.340Z,20.48
2017-08-24T00:15:20.886Z,20.47
2017-08-24T00:16:01.420Z,20.43
2017-08-24T00:16:41.967Z,20.5
2017-08-24T00:17:22.507Z,20.42
2017-08-24T00:18:03.047Z,20.48
2017-08-24T00:18:43.592Z,20.52
2017-08-24T00:19:24.153Z,20.47
2017-08-24T00:20:04.676Z,20.43
2017-08-24T00:20:45.210Z,20.52
2017-08-24T00:21:25.818Z,20.59
2017-08-24T00:22:06.362Z,20.48
2017-08-24T00:22:46.901Z,20.57
2017-08-24T00:23:27.442Z,20.54
2017-08-24T00:24:07.983Z,20.55
2017-08-24T00:24:48.516Z,20.54
2017-08-24T00:25:29.062Z,20.52
2017-08-24T00:26:09.599Z,20.51
2017-08-24T00:26:50.145Z,20.52
2017-08-24T00:27:30.688Z,20.55
2017-08-24T00:28:11.219Z,20.55
2017-08-24T00:28:51.761Z,20.55
2017-08-24T00:29:32.305Z,20.47
2017-08-24T00:30:12.849Z,20.55
2017-08-24T00:30:53.391Z,20.58
2017-08-24T00:31:33.933Z,20.57
2017-08-24T00:32:14.474Z,20.58
2017-08-24T00:32:55.010Z,20.51
2017-08-24T00:33:35.551Z,20.52
2017-08-24T00:34:16.088Z,20.57
2017-08-24T00:34:56.633Z,20.64
2017-08-24T00:35:37.168Z,20.61
2017-08-24T00:36:17.706Z,20.55
2017-08-24T00:36:58.249Z,20.62
2017-08-24T00:37:38.791Z,20.59
2017-08-24T00:38:19.335Z,20.59
2017-08-24T00:38:59.871Z,20.69
2017-08-24T00:39:40.412Z,20.59
2017-08-24T00:40:20.960Z,20.61
2017-08-24T00:41:01.494Z,20.62
2017-08-24T00:41:42.052Z,20.61
2017-08-24T00:42:22.616Z,20.59
2017-08-24T00:43:03.131Z,20.66
2017-08-24T00:43:43.669Z,20.66
2017-08-24T00:44:24.211Z,20.69
2017-08-24T00:45:04.748Z,20.66
2017-08-24T00:45:45.295Z,20.62
2017-08-24T00:46:25.824Z,20.69
2017-08-24T00:47:06.369Z,20.67
2017-08-24T00:47:46.911Z,20.62
2017-08-24T00:48:27.454Z,20.73
2017-08-24T00:49:07.998Z,20.62
2017-08-24T00:49:48.541Z,20.62
2017-08-24T00:50:29.081Z,20.61
2017-08-24T00:51:09.613Z,20.66
2017-08-24T00:51:50.159Z,20.57
2017-08-24T00:52:30.683Z,20.62
2017-08-24T00:53:11.225Z,20.66
2017-08-24T00:53:51.768Z,20.66
2017-08-24T00:54:32.302Z,20.66
2017-08-24T00:55:12.843Z,20.61
2017-08-24T00:55:53.386Z,20.62
2017-08-24T00:56:33.933Z,20.69
2017-08-24T00:57:14.474Z,20.73
2017-08-24T00:57:55.015Z,20.69
2017-08-24T00:58:35.554Z,20.72
2017-08-24T00:59:16.108Z,20.74
2017-08-24T00:59:56.630Z,20.74
2017-08-24T01:00:37.180Z,20.79
2017-08-24T01:01:17.718Z,20.85
2017-08-24T01:01:58.254Z,20.73
2017-08-24T01:02:38.794Z,20.77
2017-08-24T01:03:19.333Z,20.91
2017-08-24T01:03:59.875Z,20.85
2017-08-24T01:04:40.417Z,20.89
2017-08-24T01:05:20.960Z,20.99
2017-08-24T01:06:01.498Z,20.95
2017-08-24T01:06:42.027Z,20.97
2017-08-24T01:07:22.566Z,20.99
2017-08-24T01:08:03.115Z,21.06
2017-08-24T01:08:43.659Z,20.99
2017-08-24T01:09:24.197Z,21.1
2017-08-24T01:10:04.742Z,21.1
2017-08-24T01:10:45.281Z,21.07
2017-08-24T01:11:25.826Z,21.13
2017-08-24T01:12:06.364Z,21.1
2017-08-24T01:12:46.896Z,21.21
2017-08-24T01:13:27.449Z,21.19
2017-08-24T01:14:07.978Z,21.17
2017-08-24T01:14:48.527Z,21.22
2017-08-24T01:15:29.065Z,21.24
2017-08-24T01:16:09.596Z,21.28
2017-08-24T01:16:50.137Z,21.21
2017-08-24T01:17:30.682Z,21.38
2017-08-24T01:18:11.217Z,21.31
2017-08-24T01:18:51.760Z,21.34
2017-08-24T01:19:32.302Z,21.32
2017-08-24T01:20:12.856Z,21.32
2017-08-24T01:20:53.384Z,21.32
2017-08-24T01:21:33.930Z,21.35
2017-08-24T01:22:14.466Z,21.35
2017-08-24T01:22:55.000Z,21.31
2017-08-24T01:23:35.539Z,21.24
2017-08-24T01:24:16.071Z,21.34
2017-08-24T01:24:56.611Z,21.34
2017-08-24T01:25:37.153Z,21.35
2017-08-24T01:26:17.685Z,21.34
2017-08-24T01:26:58.285Z,21.34
2017-08-24T01:27:38.818Z,21.31
2017-08-24T01:28:19.360Z,21.37
2017-08-24T01:28:59.899Z,21.35
2017-08-24T01:29:40.439Z,21.38
2017-08-24T01:30:20.980Z,21.37
2017-08-24T01:31:01.522Z,21.37
2017-08-24T01:31:42.062Z,21.37
2017-08-24T01:32:22.603Z,21.35
2017-08-24T01:33:03.139Z,21.35
2017-08-24T01:33:43.679Z,21.31
2017-08-24T01:34:24.215Z,21.35
2017-08-24T01:35:04.766Z,21.38
2017-08-24T01:35:45.299Z,21.42
2017-08-24T01:36:25.846Z,21.35
2017-08-24T01:37:06.387Z,21.38
2017-08-24T01:37:46.926Z,21.4
2017-08-24T01:38:27.470Z,21.38
2017-08-24T01:39:08.011Z,21.35
2017-08-24T01:39:48.553Z,21.35
2017-08-24T01:40:29.095Z,21.35
2017-08-24T01:41:09.641Z,21.32
2017-08-24T01:41:50.180Z,21.32
2017-08-24T01:42:30.732Z,21.35
2017-08-24T01:43:11.285Z,21.35
2017-08-24T01:43:51.816Z,21.31
2017-08-24T01:44:32.355Z,21.35
2017-08-24T01:45:12.897Z,21.38
2017-08-24T01:45:53.439Z,21.32
2017-08-24T01:46:33.973Z,21.32
2017-08-24T01:47:14.537Z,21.35
2017-08-24T01:47:55.047Z,21.31
2017-08-24T01:48:35.584Z,21.24
2017-08-24T01:49:16.131Z,21.28
2017-08-24T01:49:56.672Z,21.34
2017-08-24T01:50:37.214Z,21.35
2017-08-24T01:51:17.766Z,21.31
2017-08-24T01:51:58.301Z,21.25
2017-08-24T01:52:38.843Z,21.32
2017-08-24T01:53:19.386Z,21.27
2017-08-24T01:53:59.917Z,21.31
2017-08-24T01:54:40.459Z,21.37
2017-08-24T01:55:20.996Z,21.32
2017-08-24T01:56:01.545Z,21.19
2017-08-24T01:56:42.086Z,21.31
2017-08-24T01:57:22.626Z,21.21
2017-08-24T01:58:03.172Z,21.24
2017-08-24T01:58:43.715Z,21.21
2017-08-24T01:59:24.256Z,21.21
2017-08-24T02:00:04.800Z,21.25
2017-08-24T02:00:45.339Z,21.27
2017-08-24T02:01:25.875Z,21.14
2017-08-24T02:02:06.401Z,21.16
2017-08-24T02:02:46.945Z,21.16
2017-08-24T02:03:27.473Z,21.14
2017-08-24T02:04:08.028Z,21.21
2017-08-24T02:04:48.573Z,21.13
2017-08-24T02:05:29.114Z,21.22
2017-08-24T02:06:09.658Z,21.06
2017-08-24T02:06:50.202Z,21.16
2017-08-24T02:07:30.743Z,21.19
2017-08-24T02:08:11.284Z,21.09
2017-08-24T02:08:51.827Z,21.12
2017-08-24T02:09:32.365Z,21.14
2017-08-24T02:10:12.914Z,21.09
2017-08-24T02:10:53.445Z,21.13
2017-08-24T02:11:33.984Z,21.13
2017-08-24T02:12:14.529Z,21.13
2017-08-24T02:12:55.068Z,21.06
2017-08-24T02:13:35.603Z,21.1
2017-08-24T02:14:16.146Z,21.07
2017-08-24T02:14:56.677Z,20.97
2017-08-24T02:15:37.253Z,20.97
2017-08-24T02:16:17.795Z,21.01
2017-08-24T02:16:58.329Z,20.97
2017-08-24T02:17:38.868Z,21.04
2017-08-24T02:18:19.411Z,21.01
2017-08-24T02:18:59.954Z,20.92
2017-08-24T02:19:40.491Z,21.03
2017-08-24T02:20:21.028Z,21.07
2017-08-24T02:21:01.589Z,20.94
2017-08-24T02:21:42.126Z,20.94
2017-08-24T02:22:22.674Z,21.06
2017-08-24T02:23:03.222Z,20.97
2017-08-24T02:23:43.773Z,21.01
2017-08-24T02:24:24.314Z,20.91
2017-08-24T02:25:04.844Z,20.92
2017-08-24T02:25:45.382Z,20.91
2017-08-24T02:26:25.918Z,20.89
2017-08-24T02:27:06.483Z,20.89
2017-08-24T02:27:47.001Z,20.88
2017-08-24T02:28:27.548Z,20.85
2017-08-24T02:29:08.090Z,20.8
2017-08-24T02:29:48.632Z,20.94
2017-08-24T02:30:29.168Z,20.85
2017-08-24T02:31:09.708Z,20.82
2017-08-24T02:31:50.253Z,20.84
2017-08-24T02:32:30.790Z,20.85
2017-08-24T02:33:11.325Z,20.7
2017-08-24T02:33:51.875Z,20.74
2017-08-24T02:34:32.413Z,20.72
2017-08-24T02:35:12.962Z,20.8
2017-08-24T02:35:53.506Z,20.79
2017-08-24T02:36:34.046Z,20.7
2017-08-24T02:37:14.592Z,20.77
2017-08-24T02:37:55.128Z,20.74
2017-08-24T02:38:35.651Z,20.74
2017-08-24T02:39:16.192Z,20.76
2017-08-24T02:39:56.738Z,20.84
2017-08-24T02:40:37.280Z,20.76
2017-08-24T02:41:17.820Z,20.7
2017-08-24T02:41:58.366Z,20.74
2017-08-24T02:42:38.919Z,20.67
2017-08-24T02:43:19.454Z,20.73
2017-08-24T02:43:59.996Z,20.73
2017-08-24T02:44:40.541Z,20.73
2017-08-24T02:45:21.092Z,20.73
2017-08-24T02:46:01.634Z,20.72
2017-08-24T02:46:42.177Z,20.77
2017-08-24T02:47:22.715Z,20.61
2017-08-24T02:48:03.260Z,20.77
2017-08-24T02:48:43.797Z,20.58
2017-08-24T02:49:24.333Z,20.69
2017-08-24T02:50:04.872Z,20.59
2017-08-24T02:50:45.413Z,20.59
2017-08-24T02:51:25.950Z,20.62
2017-08-24T02:52:06.498Z,20.66
2017-08-24T02:52:47.037Z,20.64
2017-08-24T02:53:27.571Z,20.62
2017-08-24T02:54:08.118Z,20.62
2017-08-24T02:54:48.664Z,20.58
2017-08-24T02:55:29.247Z,20.57
2017-08-24T02:56:09.785Z,20.54
2017-08-24T02:56:50.322Z,20.61
2017-08-24T02:57:30.864Z,20.51
2017-08-24T02:58:11.405Z,20.55
2017-08-24T02:58:51.944Z,20.55
2017-08-24T02:59:32.484Z,20.58
2017-08-24T03:00:13.029Z,20.57
2017-08-24T03:00:53.566Z,20.48
2017-08-24T03:01:34.112Z,20.5
2017-08-24T03:02:14.661Z,20.48
2017-08-24T03:02:55.201Z,20.39
2017-08-24T03:03:35.740Z,20.41
2017-08-24T03:04:16.278Z,20.38
2017-08-24T03:04:56.810Z,20.39
2017-08-24T03:05:37.357Z,20.29
2017-08-24T03:06:17.888Z,20.31
2017-08-24T03:06:58.439Z,20.32
2017-08-24T03:07:38.976Z,20.21
2017-08-24T03:08:19.520Z,20.24
2017-08-24T03:09:00.158Z,20.28
2017-08-24T03:10:39.012Z,20.2
2017-08-24T03:11:19.585Z,20.14
2017-08-24T03:12:00.125Z,20.17
2017-08-24T03:12:40.663Z,20.13
2017-08-24T03:13:21.205Z,20.18
2017-08-24T03:14:01.746Z,20.17
2017-08-24T03:14:42.279Z,20.05
2017-08-24T03:15:22.836Z,20.06
2017-08-24T03:16:03.381Z,19.99
2017-08-24T03:16:43.911Z,20.05
2017-08-24T03:17:24.709Z,20.06
2017-08-24T03:18:05.249Z,19.99
2017-08-24T03:18:45.771Z,20.01
2017-08-24T03:19:26.305Z,20.03
2017-08-24T03:20:06.850Z,20.01
2017-08-24T03:20:47.390Z,20.08
2017-08-24T03:21:27.920Z,20.01
2017-08-24T03:22:08.457Z,19.99
2017-08-24T03:22:48.999Z,20.01
2017-08-24T03:23:29.531Z,20.11
2017-08-24T03:24:10.064Z,19.98
2017-08-24T03:24:50.622Z,20.08
2017-08-24T03:25:31.139Z,19.99
2017-08-24T03:26:11.714Z,20.05
2017-08-24T03:26:52.242Z,20.05
2017-08-24T03:27:32.785Z,20.06
2017-08-24T03:28:13.363Z,19.99
2017-08-24T03:28:53.891Z,20.01
2017-08-24T03:29:34.442Z,20.02
2017-08-24T03:30:14.990Z,20.01
2017-08-24T03:30:55.545Z,20.01
2017-08-24T03:31:36.091Z,19.96
2017-08-24T03:32:16.628Z,19.96
2017-08-24T03:32:57.167Z,19.88
2017-08-24T03:33:37.708Z,19.98
2017-08-24T03:34:18.235Z,19.92
2017-08-24T03:34:58.767Z,19.92
2017-08-24T03:35:39.307Z,19.88
2017-08-24T03:36:19.847Z,19.86
2017-08-24T03:37:00.395Z,19.88
2017-08-24T03:37:40.923Z,19.87
2017-08-24T03:38:21.453Z,19.84
2017-08-24T03:39:01.981Z,19.83
2017-08-24T03:39:42.520Z,19.86
2017-08-24T03:40:23.058Z,19.92
2017-08-24T03:41:03.598Z,19.84
2017-08-24T03:41:44.132Z,19.81
2017-08-24T03:42:24.673Z,19.86
2017-08-24T03:43:05.371Z,19.88
2017-08-24T03:43:45.909Z,19.88
2017-08-24T03:44:26.446Z,19.87
2017-08-24T03:45:06.980Z,19.86
2017-08-24T03:45:47.518Z,19.86
2017-08-24T03:46:28.058Z,19.77
2017-08-24T03:47:08.596Z,19.78
2017-08-24T03:47:49.135Z,19.76
2017-08-24T03:48:29.669Z,19.81
2017-08-24T03:49:10.208Z,19.74
2017-08-24T03:49:50.747Z,19.76
2017-08-24T03:50:31.443Z,19.76
2017-08-24T03:51:12.013Z,19.76
2017-08-24T03:51:52.560Z,19.73
2017-08-24T03:52:33.100Z,19.73
2017-08-24T03:53:13.639Z,19.73
2017-08-24T03:53:54.265Z,19.68
2017-08-24T03:54:34.804Z,19.71
2017-08-24T03:55:15.344Z,19.65
2017-08-24T03:55:55.885Z,19.68
2017-08-24T03:56:36.427Z,19.65
2017-08-24T03:57:16.960Z,19.65
2017-08-24T03:57:57.499Z,19.65
2017-08-24T03:58:39.231Z,19.58
2017-08-24T03:59:22.781Z,19.63
2017-08-24T04:00:05.055Z,19.58
2017-08-24T04:00:48.198Z,19.58
2017-08-24T04:03:04.428Z,19.54
2017-08-24T04:03:48.508Z,19.54
2017-08-24T04:04:29.039Z,19.39
2017-08-24T04:05:09.606Z,19.43
2017-08-24T04:05:50.142Z,19.41
2017-08-24T04:06:30.681Z,19.31
2017-08-24T04:07:11.309Z,19.22
2017-08-24T04:07:51.843Z,19.22
2017-08-24T04:08:32.382Z,19.31
2017-08-24T04:09:12.919Z,19.25
2017-08-24T04:09:53.460Z,19.29
2017-08-24T04:10:33.990Z,19.36
2017-08-24T04:11:14.528Z,19.29
2017-08-24T04:11:55.506Z,19.32
2017-08-24T04:12:38.832Z,19.26
2017-08-24T04:13:19.526Z,19.32
2017-08-24T04:14:00.065Z,19.26
2017-08-24T04:14:40.602Z,19.19
2017-08-24T04:15:21.144Z,19.22
2017-08-24T04:16:01.669Z,19.22
2017-08-24T04:16:42.195Z,19.18
2017-08-24T04:17:22.731Z,19.07
2017-08-24T04:18:03.265Z,19.13
2017-08-24T04:18:43.806Z,19.18
2017-08-24T04:19:24.341Z,19.13
2017-08-24T04:20:04.876Z,19.07
2017-08-24T04:20:45.413Z,19.07
2017-08-24T04:21:28.533Z,19.11
2017-08-24T04:22:09.261Z,19.02
2017-08-24T04:22:49.799Z,18.99
2017-08-24T04:23:30.338Z,19.04
2017-08-24T04:24:10.875Z,18.98
2017-08-24T04:24:51.417Z,19
2017-08-24T04:25:31.957Z,18.95
2017-08-24T04:26:12.499Z,18.99
2017-08-24T04:26:53.038Z,18.98
2017-08-24T04:27:33.576Z,18.88
2017-08-24T04:28:14.135Z,18.91
2017-08-24T04:28:54.642Z,18.91
2017-08-24T04:29:35.191Z,18.9
2017-08-24T04:30:15.734Z,18.82
2017-08-24T04:30:56.273Z,18.81
2017-08-24T04:31:36.811Z,18.8
2017-08-24T04:32:17.347Z,18.8
2017-08-24T04:32:57.885Z,18.76
2017-08-24T04:33:38.424Z,18.8
2017-08-24T04:34:18.960Z,18.76
2017-08-24T04:34:59.500Z,18.75
2017-08-24T04:35:40.039Z,18.73
2017-08-24T04:36:20.579Z,18.67
2017-08-24T04:37:01.118Z,18.69
2017-08-24T04:37:41.657Z,18.69
2017-08-24T04:38:22.739Z,18.66
2017-08-24T04:39:05.617Z,18.65
2017-08-24T04:39:46.148Z,18.67
2017-08-24T04:40:26.692Z,18.65
2017-08-24T04:41:07.234Z,18.65
2017-08-24T04:41:47.785Z,18.55
2017-08-24T04:42:28.317Z,18.52
2017-08-24T04:43:08.854Z,18.52
2017-08-24T04:43:49.385Z,18.48
2017-08-24T04:44:29.931Z,18.45
2017-08-24T04:45:10.469Z,18.44
2017-08-24T04:45:50.998Z,18.48
2017-08-24T04:46:31.537Z,18.48
2017-08-24T04:47:12.071Z,18.47
2017-08-24T04:47:52.608Z,18.45
2017-08-24T04:48:33.144Z,18.36
2017-08-24T04:49:13.687Z,18.32
2017-08-24T04:49:54.226Z,18.36
2017-08-24T04:50:34.765Z,18.39
2017-08-24T04:51:15.303Z,18.36
2017-08-24T04:51:55.844Z,18.32
2017-08-24T04:52:36.381Z,18.36
2017-08-24T04:53:16.904Z,18.35
2017-08-24T04:53:57.442Z,18.41
2017-08-24T04:54:37.982Z,18.37
2017-08-24T04:55:18.510Z,18.33
2017-08-24T04:55:59.057Z,18.32
2017-08-24T04:56:39.606Z,18.37
2017-08-24T04:57:20.150Z,18.39
2017-08-24T04:58:01.933Z,18.32
2017-08-24T04:58:44.225Z,18.35
2017-08-24T04:59:24.815Z,18.39
2017-08-24T05:00:05.338Z,18.39
2017-08-24T05:00:45.881Z,18.25
2017-08-24T05:01:26.466Z,18.26
2017-08-24T05:02:07.004Z,18.25
2017-08-24T05:02:47.536Z,18.21
2017-08-24T05:03:28.064Z,18.26
2017-08-24T05:04:08.597Z,18.3
2017-08-24T05:04:49.136Z,18.29
2017-08-24T05:05:29.675Z,18.27
2017-08-24T05:06:10.191Z,18.25
2017-08-24T05:06:50.725Z,18.18
2017-08-24T05:07:31.260Z,18.15
2017-08-24T05:08:11.797Z,18.17
2017-08-24T05:08:52.338Z,18.14
2017-08-24T05:09:32.873Z,18.12
2017-08-24T05:10:13.409Z,18.17
2017-08-24T05:10:53.941Z,18.14
2017-08-24T05:11:34.471Z,18.14
2017-08-24T05:12:15.047Z,18.18
2017-08-24T05:12:55.521Z,18.14
2017-08-24T05:13:36.049Z,18.15
2017-08-24T05:14:16.580Z,18.14
2017-08-24T05:14:57.122Z,18.11
2017-08-24T05:15:37.657Z,18.11
2017-08-24T05:16:18.202Z,18.1
2017-08-24T05:16:58.743Z,18.12
2017-08-24T05:17:39.296Z,18.11
2017-08-24T05:18:19.793Z,18.11
2017-08-24T05:19:00.326Z,18.11
2017-08-24T05:19:40.901Z,18.07
2017-08-24T05:20:21.428Z,18.08
2017-08-24T05:21:01.966Z,18.11
2017-08-24T05:21:42.498Z,18.05
2017-08-24T05:22:23.022Z,18.05
2017-08-24T05:23:03.557Z,18.05
2017-08-24T05:23:44.137Z,18.07
2017-08-24T05:24:24.685Z,18.12
2017-08-24T05:25:05.210Z,18.08
2017-08-24T05:25:45.746Z,18.1
2017-08-24T05:26:26.283Z,18.03
2017-08-24T05:27:06.824Z,18.07
2017-08-24T05:27:48.257Z,17.97
2017-08-24T05:28:30.643Z,18.05
2017-08-24T05:29:11.186Z,18.03
2017-08-24T05:29:51.723Z,17.99
2017-08-24T05:30:32.265Z,17.95
2017-08-24T05:31:12.802Z,18.05
2017-08-24T05:31:53.344Z,18
2017-08-24T05:32:33.894Z,17.99
2017-08-24T05:33:14.435Z,17.99
2017-08-24T05:33:54.970Z,18
2017-08-24T05:34:35.503Z,18.02
2017-08-24T05:35:16.032Z,17.99
2017-08-24T05:35:56.565Z,18
2017-08-24T05:36:37.100Z,17.99
2017-08-24T05:37:17.633Z,18
2017-08-24T05:37:58.171Z,18
2017-08-24T05:38:38.714Z,18.05
2017-08-24T05:40:32.792Z,18.05
2017-08-24T05:41:13.333Z,18.03
2017-08-24T05:41:53.870Z,18.03
2017-08-24T05:42:34.410Z,18.03
2017-08-24T05:43:14.948Z,18.03
2017-08-24T05:43:55.487Z,18.07
2017-08-24T05:44:36.027Z,18.02
2017-08-24T05:45:16.576Z,18.02
2017-08-24T05:45:57.106Z,17.97
2017-08-24T05:46:37.646Z,18.02
2017-08-24T05:47:18.174Z,18
2017-08-24T05:47:58.708Z,17.99
2017-08-24T05:48:39.249Z,18
2017-08-24T05:49:19.774Z,18.05
2017-08-24T05:50:00.310Z,17.99
2017-08-24T05:50:40.849Z,18.02
2017-08-24T05:51:21.425Z,18.08
2017-08-24T05:52:01.952Z,18.03
2017-08-24T05:52:42.488Z,18.03
2017-08-24T05:53:23.018Z,18.08
2017-08-24T05:54:03.569Z,18.07
2017-08-24T05:54:44.109Z,18.03
2017-08-24T05:55:24.654Z,17.99
2017-08-24T05:56:05.202Z,18.07
2017-08-24T05:56:45.748Z,18.02
2017-08-24T05:57:26.282Z,18.02
2017-08-24T05:58:06.816Z,18.05
2017-08-24T05:58:47.340Z,17.99
2017-08-24T05:59:27.872Z,18.03
2017-08-24T06:00:08.470Z,17.99
2017-08-24T06:00:49.001Z,18.05
2017-08-24T06:01:29.529Z,18.03
2017-08-24T06:02:10.064Z,17.99
2017-08-24T06:02:50.605Z,17.97
2017-08-24T06:03:31.127Z,17.97
2017-08-24T06:04:11.654Z,18.03
2017-08-24T06:04:52.179Z,18.07
2017-08-24T06:05:32.716Z,18.05
2017-08-24T06:06:13.566Z,18.02
2017-08-24T06:06:54.343Z,18
2017-08-24T06:07:35.081Z,18.05
2017-08-24T06:08:15.705Z,18.07
2017-08-24T06:08:56.266Z,18.02
2017-08-24T06:09:36.807Z,18.08
2017-08-24T06:10:17.328Z,18.08
2017-08-24T06:10:57.856Z,18.12
2017-08-24T06:11:38.403Z,18.15
2017-08-24T06:12:18.938Z,18.21
2017-08-24T06:12:59.490Z,18.17
2017-08-24T06:13:40.023Z,18.21
2017-08-24T06:14:20.563Z,18.26
2017-08-24T06:15:01.100Z,18.23
2017-08-24T06:15:41.648Z,18.17
2017-08-24T06:16:22.186Z,18.23
2017-08-24T06:17:02.727Z,18.2
2017-08-24T06:17:43.257Z,18.25
2017-08-24T06:18:23.801Z,18.27
2017-08-24T06:19:04.343Z,18.25
2017-08-24T06:19:44.877Z,18.37
2017-08-24T06:20:25.439Z,18.36
2017-08-24T06:21:05.969Z,18.36
2017-08-24T06:21:46.518Z,18.32
2017-08-24T06:22:27.054Z,18.45
2017-08-24T06:23:07.588Z,18.45
2017-08-24T06:23:48.133Z,18.41
2017-08-24T06:24:28.667Z,18.5
2017-08-24T06:25:09.236Z,18.51
2017-08-24T06:25:49.747Z,18.51
2017-08-24T06:26:30.304Z,18.44
2017-08-24T06:27:10.815Z,18.51
2017-08-24T06:27:51.356Z,18.48
2017-08-24T06:28:31.891Z,18.55
2017-08-24T06:29:12.419Z,18.47
2017-08-24T06:29:52.952Z,18.5
2017-08-24T06:30:33.497Z,18.48
2017-08-24T06:31:14.030Z,18.42
2017-08-24T06:31:54.577Z,18.44
2017-08-24T06:32:35.170Z,18.44
2017-08-24T06:33:15.675Z,18.42
2017-08-24T06:33:56.212Z,18.37
2017-08-24T06:34:36.750Z,18.48
2017-08-24T06:35:17.275Z,18.42
2017-08-24T06:35:57.817Z,18.39
2017-08-24T06:36:38.362Z,18.41
2017-08-24T06:37:18.930Z,18.3
2017-08-24T06:37:59.449Z,18.42
2017-08-24T06:38:39.988Z,18.32
2017-08-24T06:39:20.527Z,18.42
2017-08-24T06:40:01.094Z,18.35
2017-08-24T06:40:41.627Z,18.39
2017-08-24T06:41:22.239Z,18.36
2017-08-24T06:42:03.826Z,18.39
2017-08-24T06:42:44.445Z,18.35
2017-08-24T06:43:24.975Z,18.42
2017-08-24T06:44:05.514Z,18.36
2017-08-24T06:44:46.053Z,18.32
2017-08-24T06:45:26.616Z,18.35
2017-08-24T06:46:07.118Z,18.29
2017-08-24T06:46:47.659Z,18.35
2017-08-24T06:47:28.198Z,18.37
2017-08-24T06:48:08.736Z,18.36
2017-08-24T06:48:49.281Z,18.44
2017-08-24T06:49:29.832Z,18.35
2017-08-24T06:50:12.262Z,18.41
2017-08-24T06:50:52.783Z,18.42
2017-08-24T06:51:33.455Z,18.47
2017-08-24T06:52:13.936Z,18.47
2017-08-24T06:52:54.471Z,18.51
2017-08-24T06:53:35.005Z,18.51
2017-08-24T06:54:15.530Z,18.57
2017-08-24T06:54:56.069Z,18.54
2017-08-24T06:55:36.609Z,18.6
2017-08-24T06:56:17.154Z,18.63
2017-08-24T06:56:57.695Z,18.65
2017-08-24T06:57:38.232Z,18.63
2017-08-24T06:58:18.772Z,18.65
2017-08-24T06:58:59.309Z,18.65
2017-08-24T06:59:39.850Z,18.6
2017-08-24T07:00:20.401Z,18.62
2017-08-24T07:01:00.932Z,18.62
2017-08-24T07:01:41.480Z,18.58
2017-08-24T07:02:22.009Z,18.67
2017-08-24T07:03:02.549Z,18.69
2017-08-24T07:03:43.088Z,18.63
2017-08-24T07:04:23.627Z,18.63
2017-08-24T07:05:04.169Z,18.62
2017-08-24T07:05:44.710Z,18.65
2017-08-24T07:06:25.251Z,18.69
2017-08-24T07:07:05.789Z,18.67
2017-08-24T07:07:46.327Z,18.66
2017-08-24T07:08:26.866Z,18.66
2017-08-24T07:09:07.390Z,18.57
2017-08-24T07:09:47.934Z,18.62
2017-08-24T07:10:28.471Z,18.62
2017-08-24T07:11:09.010Z,18.63
2017-08-24T07:11:49.549Z,18.55
2017-08-24T07:12:30.089Z,18.65
2017-08-24T07:13:10.627Z,18.65
2017-08-24T07:13:51.164Z,18.65
2017-08-24T07:14:31.701Z,18.63
2017-08-24T07:15:12.237Z,18.66
2017-08-24T07:15:52.779Z,18.67
2017-08-24T07:16:33.319Z,18.63
2017-08-24T07:17:13.858Z,18.66
2017-08-24T07:17:54.397Z,18.7
2017-08-24T07:18:34.930Z,18.66
2017-08-24T07:19:15.467Z,18.7
2017-08-24T07:19:55.992Z,18.81
2017-08-24T07:20:36.532Z,18.82
2017-08-24T07:21:17.072Z,18.78
2017-08-24T07:21:57.613Z,18.81
2017-08-24T07:22:38.153Z,18.88
2017-08-24T07:23:18.694Z,18.88
2017-08-24T07:23:59.233Z,18.85
2017-08-24T07:24:39.771Z,18.92
2017-08-24T07:25:20.306Z,19
2017-08-24T07:26:00.837Z,18.94
2017-08-24T07:26:41.386Z,18.98
2017-08-24T07:27:21.918Z,18.98
2017-08-24T07:28:02.456Z,18.94
2017-08-24T07:28:42.990Z,19.04
2017-08-24T07:29:23.534Z,18.99
2017-08-24T07:30:04.068Z,19.02
2017-08-24T07:30:44.608Z,19.04
2017-08-24T07:31:25.146Z,19.07
2017-08-24T07:32:05.688Z,19.13
2017-08-24T07:32:46.223Z,19.08
2017-08-24T07:33:26.756Z,19.13
2017-08-24T07:34:07.297Z,19.11
2017-08-24T07:34:47.838Z,19.08
2017-08-24T07:35:28.401Z,19.18
2017-08-24T07:36:08.919Z,19.11
2017-08-24T07:36:49.444Z,19.19
2017-08-24T07:37:29.983Z,19.22
2017-08-24T07:38:10.518Z,19.23
2017-08-24T07:38:51.058Z,19.36
2017-08-24T07:39:31.596Z,19.26
2017-08-24T07:40:12.131Z,19.29
2017-08-24T07:40:52.671Z,19.43
2017-08-24T07:41:33.214Z,19.39
2017-08-24T07:42:13.751Z,19.4
2017-08-24T07:42:54.291Z,19.39
2017-08-24T07:43:34.831Z,19.36
2017-08-24T07:44:15.372Z,19.44
2017-08-24T07:44:55.911Z,19.4
2017-08-24T07:45:36.442Z,19.48
2017-08-24T07:46:16.976Z,19.5
2017-08-24T07:46:57.510Z,19.5
2017-08-24T07:47:38.045Z,19.61
2017-08-24T07:48:18.594Z,19.56
2017-08-24T07:48:59.126Z,19.65
2017-08-24T07:49:39.666Z,19.66
2017-08-24T07:50:20.207Z,19.71
2017-08-24T07:51:00.750Z,19.74
2017-08-24T07:51:41.283Z,19.74
2017-08-24T07:52:21.823Z,19.77
2017-08-24T07:53:02.329Z,19.77
2017-08-24T07:53:42.870Z,19.77
2017-08-24T07:54:23.407Z,19.88
2017-08-24T07:55:03.940Z,19.83
2017-08-24T07:55:44.479Z,19.88
2017-08-24T07:56:25.016Z,19.87
2017-08-24T07:57:05.551Z,19.91
2017-08-24T07:57:46.093Z,19.8
2017-08-24T07:58:26.633Z,19.83
2017-08-24T07:59:07.171Z,19.77
2017-08-24T07:59:47.709Z,19.87
2017-08-24T08:00:28.249Z,19.91
2017-08-24T08:01:08.782Z,19.99
2017-08-24T08:01:49.323Z,20.03
2017-08-24T08:02:29.880Z,20.06
2017-08-24T08:03:10.401Z,19.98
2017-08-24T08:03:50.935Z,20.11
2017-08-24T08:04:31.490Z,20.06
2017-08-24T08:05:12.029Z,19.99
2017-08-24T08:05:52.571Z,19.99
2017-08-24T08:06:33.111Z,19.96
2017-08-24T08:07:13.657Z,19.95
2017-08-24T08:07:54.185Z,20.06
2017-08-24T08:08:34.727Z,20.13
2017-08-24T08:09:15.264Z,20.1
2017-08-24T08:09:55.807Z,20.16
2017-08-24T08:10:36.348Z,19.99
2017-08-24T08:11:16.892Z,20.11
2017-08-24T08:11:57.436Z,20.05
2017-08-24T08:12:37.972Z,20.01
2017-08-24T08:13:18.516Z,20.03
2017-08-24T08:13:59.056Z,20.13
2017-08-24T08:14:39.590Z,20.13
2017-08-24T08:15:20.132Z,20.28
2017-08-24T08:16:00.673Z,20.31
2017-08-24T08:16:41.202Z,20.5
2017-08-24T08:17:21.739Z,20.55
2017-08-24T08:18:02.280Z,20.58
2017-08-24T08:18:42.821Z,20.61
2017-08-24T08:19:23.362Z,20.76
2017-08-24T08:20:03.895Z,20.8
2017-08-24T08:20:44.436Z,20.87
2017-08-24T08:21:24.976Z,20.94
2017-08-24T08:22:05.524Z,20.95
2017-08-24T08:22:46.065Z,20.94
2017-08-24T08:23:26.597Z,21.04
2017-08-24T08:24:07.136Z,20.98
2017-08-24T08:24:47.676Z,21.14
2017-08-24T08:25:28.205Z,21.13
2017-08-24T08:26:08.745Z,21.24
2017-08-24T08:26:49.282Z,21.27
2017-08-24T08:27:29.824Z,21.25
2017-08-24T08:28:10.383Z,21.31
2017-08-24T08:28:50.933Z,21.34
2017-08-24T08:29:31.464Z,21.5
2017-08-24T08:30:12.006Z,21.61
2017-08-24T08:30:52.548Z,21.46
2017-08-24T08:31:33.093Z,21.44
2017-08-24T08:32:13.624Z,21.43
2017-08-24T08:32:54.187Z,21.46
2017-08-24T08:33:34.713Z,21.46
2017-08-24T08:34:15.251Z,21.52
2017-08-24T08:34:55.789Z,21.54
2017-08-24T08:35:36.341Z,21.5
2017-08-24T08:36:16.871Z,21.47
2017-08-24T08:36:57.418Z,21.61
2017-08-24T08:37:37.963Z,21.68
2017-08-24T08:38:18.503Z,21.75
2017-08-24T08:38:59.048Z,21.94
2017-08-24T08:39:39.588Z,21.88
2017-08-24T08:40:20.127Z,21.79
2017-08-24T08:41:00.667Z,21.82
2017-08-24T08:41:41.219Z,21.77
2017-08-24T08:42:21.763Z,21.68
2017-08-24T08:43:02.302Z,21.65
2017-08-24T08:43:42.849Z,21.58
2017-08-24T08:44:23.406Z,21.44
2017-08-24T08:45:03.950Z,21.34
2017-08-24T08:45:44.487Z,21.38
2017-08-24T08:46:25.035Z,21.42
2017-08-24T08:47:05.575Z,21.43
2017-08-24T08:47:46.115Z,21.44